Time;durP1;ratioP1;P1;durP2;ratioP2;P2;SDS_P1;SDS_P2;PMS_P1;PMS_P2;Temp;Humidity;BMP_temperature;BMP_pressure;BME280_temperature;BME280_humidity;BME280_pressure;Samples;Min_cycle;Max_cycle;Signal;HPM_P1;HPM_P2
2022/03/24 00:00:08;;;;;;;10.27;3.58;;;8.60;36.80;;;;;;4956153;28;20086;-74
2022/03/24 00:02:34;;;;;;;8.82;3.85;;;8.60;36.70;;;;;;4953698;29;20143;-74
2022/03/24 00:05:01;;;;;;;9.10;4.22;;;8.60;37.10;;;;;;4955014;29;20038;-74
2022/03/24 00:07:27;;;;;;;7.68;3.70;;;8.50;37.70;;;;;;4956043;28;20110;-74
2022/03/24 00:09:53;;;;;;;6.78;3.42;;;8.50;37.30;;;;;;4955849;28;20102;-74
2022/03/24 00:12:19;;;;;;;4.85;2.90;;;8.50;37.10;;;;;;4955532;28;20027;-74
2022/03/24 00:14:45;;;;;;;6.95;3.75;;;8.50;37.20;;;;;;4956053;28;20146;-74
2022/03/24 00:17:11;;;;;;;7.15;4.40;;;8.40;37.50;;;;;;4954848;29;20035;-74
2022/03/24 00:19:37;;;;;;;15.27;3.60;;;8.40;38.00;;;;;;4970695;28;21358;-74
2022/03/24 00:22:03;;;;;;;7.75;4.32;;;8.40;38.00;;;;;;4955979;29;20544;-74
2022/03/24 00:24:29;;;;;;;6.15;3.17;;;8.40;38.10;;;;;;4955760;28;20047;-74
2022/03/24 00:26:56;;;;;;;4.70;3.28;;;8.40;37.80;;;;;;4955836;28;20102;-74
2022/03/24 00:29:21;;;;;;;6.65;4.00;;;8.30;37.70;;;;;;4949667;28;20447;-74
2022/03/24 00:31:47;;;;;;;5.35;3.50;;;8.30;38.00;;;;;;4948659;29;20051;-74
2022/03/24 00:34:13;;;;;;;9.20;3.70;;;8.30;37.90;;;;;;4953118;29;20031;-74
2022/03/24 00:36:39;;;;;;;7.10;3.60;;;8.30;37.80;;;;;;4969144;28;20148;-74
2022/03/24 00:39:06;;;;;;;6.00;3.35;;;8.20;37.70;;;;;;4970526;28;20035;-74
2022/03/24 00:41:32;;;;;;;8.13;3.78;;;8.20;38.10;;;;;;4954432;28;20114;-74
2022/03/24 00:43:58;;;;;;;12.48;3.60;;;8.20;38.20;;;;;;4970440;28;20119;-74
2022/03/24 00:46:24;;;;;;;6.60;3.65;;;8.20;38.10;;;;;;4955651;28;20035;-74
2022/03/24 00:48:51;;;;;;;5.97;3.78;;;8.10;38.60;;;;;;4954234;29;20114;-74
2022/03/24 00:51:18;;;;;;;6.28;3.58;;;8.10;38.50;;;;;;4955263;28;20024;-74
2022/03/24 00:53:44;;;;;;;6.75;3.60;;;8.10;38.30;;;;;;4955508;28;20037;-74
2022/03/24 00:56:10;;;;;;;10.52;3.45;;;8.00;38.70;;;;;;4955376;28;20118;-74
2022/03/24 00:58:37;;;;;;;9.63;3.63;;;8.00;38.70;;;;;;4955072;28;20536;-74
2022/03/24 01:01:04;;;;;;;6.20;3.50;;;8.00;38.80;;;;;;4954884;28;20043;-74
2022/03/24 01:03:30;;;;;;;6.80;3.63;;;8.00;39.10;;;;;;4953778;28;20028;-74
2022/03/24 01:05:57;;;;;;;7.38;3.40;;;8.00;39.40;;;;;;4955479;28;20020;-74
2022/03/24 01:08:23;;;;;;;6.50;3.95;;;7.90;39.00;;;;;;4955065;28;20035;-74
2022/03/24 01:10:49;;;;;;;5.65;3.17;;;7.90;38.80;;;;;;4955310;28;20020;-74
2022/03/24 01:13:15;;;;;;;6.88;3.70;;;7.90;38.70;;;;;;4955011;28;20489;-74
2022/03/24 01:15:45;;;;;;;8.70;3.83;;;7.80;38.90;;;;;;4955126;28;20035;-74
2022/03/24 01:18:14;;;;;;;6.13;3.42;;;7.80;39.20;;;;;;4955126;28;20505;-74
2022/03/24 01:20:43;;;;;;;5.68;3.17;;;7.80;39.00;;;;;;4955226;28;20034;-74
2022/03/24 01:23:11;;;;;;;6.15;3.63;;;7.80;39.10;;;;;;4953751;29;20031;-74
2022/03/24 01:25:37;;;;;;;6.28;3.42;;;7.70;39.00;;;;;;4954967;28;20023;-74
2022/03/24 01:28:03;;;;;;;5.38;3.17;;;7.70;39.10;;;;;;4955031;28;20544;-74
2022/03/24 01:30:28;;;;;;;6.70;3.70;;;7.70;39.20;;;;;;4954468;28;20023;-74
2022/03/24 01:32:54;;;;;;;5.90;3.70;;;7.60;39.40;;;;;;4954194;28;20466;-74
2022/03/24 01:35:20;;;;;;;8.07;3.58;;;7.60;39.60;;;;;;4954761;28;20035;-74
2022/03/24 01:37:45;;;;;;;7.10;4.03;;;7.60;39.80;;;;;;4953786;28;20042;-74
2022/03/24 01:40:13;;;;;;;8.80;4.10;;;7.60;39.60;;;;;;4953742;29;20037;-74
2022/03/24 01:42:40;;;;;;;5.72;3.10;;;7.60;39.60;;;;;;4961066;28;20477;-74
2022/03/24 01:45:07;;;;;;;7.85;3.55;;;7.50;39.50;;;;;;4954516;28;20110;-74
2022/03/24 01:47:34;;;;;;;6.28;3.55;;;7.50;39.60;;;;;;4954910;29;20078;-74
2022/03/24 01:50:00;;;;;;;9.10;4.05;;;7.50;39.70;;;;;;4954841;28;20492;-74
2022/03/24 01:52:28;;;;;;;9.20;3.97;;;7.40;39.90;;;;;;4953769;28;20030;-74
2022/03/24 01:54:56;;;;;;;5.95;3.40;;;7.40;40.70;;;;;;4961215;28;20027;-74
2022/03/24 01:57:23;;;;;;;9.77;3.95;;;7.40;39.90;;;;;;4954799;28;20394;-74
2022/03/24 01:59:49;;;;;;;8.50;3.97;;;7.40;40.80;;;;;;4954146;28;20074;-74
2022/03/24 02:02:16;;;;;;;8.82;5.20;;;7.30;40.20;;;;;;4954412;28;20024;-74
2022/03/24 02:04:43;;;;;;;13.48;4.28;;;7.30;40.60;;;;;;4969029;28;20445;-74
2022/03/24 02:07:13;;;;;;;7.25;3.75;;;7.30;40.60;;;;;;4953863;28;20038;-74
2022/03/24 02:09:40;;;;;;;6.38;3.65;;;7.30;40.60;;;;;;4969279;28;20031;-74
2022/03/24 02:12:07;;;;;;;8.07;3.92;;;7.30;40.40;;;;;;4953749;28;20481;-74
2022/03/24 02:14:34;;;;;;;8.38;4.13;;;7.30;40.50;;;;;;4957195;28;20023;-74
2022/03/24 02:17:00;;;;;;;6.43;3.67;;;7.20;40.60;;;;;;4966072;28;20130;-74
2022/03/24 02:19:28;;;;;;;8.18;3.80;;;7.20;40.70;;;;;;4953199;29;20035;-74
2022/03/24 02:22:00;;;;;;;6.55;3.70;;;7.20;40.70;;;;;;4954086;28;20034;-74
2022/03/24 02:24:26;;;;;;;7.72;3.90;;;7.20;40.90;;;;;;4935366;29;20106;-74
2022/03/24 02:26:54;;;;;;;9.35;3.78;;;7.20;41.00;;;;;;4949926;29;20035;-74
2022/03/24 02:29:25;;;;;;;9.88;4.22;;;7.10;40.90;;;;;;4953249;28;20027;-74
2022/03/24 02:31:52;;;;;;;7.18;3.90;;;7.10;40.90;;;;;;4949628;28;20504;-74
2022/03/24 02:34:38;;;;;;;9.25;4.68;;;7.10;40.90;;;;;;4951658;28;20370;-74
2022/03/24 02:37:14;;;;;;;7.35;4.47;;;7.10;41.00;;;;;;4949276;29;20019;-74
2022/03/24 02:39:42;;;;;;;9.85;4.43;;;7.10;41.00;;;;;;4951565;28;20525;-74
2022/03/24 02:42:14;;;;;;;9.07;3.90;;;7.00;41.30;;;;;;4953887;28;20027;-74
2022/03/24 02:44:42;;;;;;;7.40;4.38;;;7.00;41.10;;;;;;4953918;28;20472;-75
2022/03/24 02:47:09;;;;;;;8.45;4.10;;;7.00;41.10;;;;;;4953659;28;20110;-74
2022/03/24 02:49:35;;;;;;;9.13;4.55;;;7.00;41.00;;;;;;4953947;28;20413;-74
2022/03/24 02:52:01;;;;;;;8.05;4.55;;;6.90;40.90;;;;;;4953997;28;20114;-74
2022/03/24 02:54:29;;;;;;;10.27;4.45;;;6.90;41.30;;;;;;4953633;29;20545;-74
2022/03/24 02:56:55;;;;;;;7.95;4.50;;;6.90;41.30;;;;;;4953793;28;20027;-74
2022/03/24 02:59:22;;;;;;;8.68;4.18;;;6.90;41.20;;;;;;4952859;28;20051;-74
2022/03/24 03:02:02;;;;;;;8.88;4.38;;;6.90;41.30;;;;;;4953819;28;20478;-74
2022/03/24 03:04:31;;;;;;;9.73;4.70;;;6.90;41.70;;;;;;4968803;28;20031;-74
2022/03/24 03:06:58;;;;;;;9.95;4.70;;;6.80;41.80;;;;;;4957249;28;20019;-74
2022/03/24 03:09:24;;;;;;;7.32;4.30;;;6.80;41.90;;;;;;4957149;28;20493;-74
2022/03/24 03:11:52;;;;;;;6.88;3.70;;;6.80;42.00;;;;;;4955708;29;20102;-74
2022/03/24 03:14:19;;;;;;;10.80;4.57;;;6.80;42.00;;;;;;4956284;29;20038;-75
2022/03/24 03:16:46;;;;;;;24.25;5.85;;;6.80;42.20;;;;;;4957036;28;20378;-74
2022/03/24 03:19:17;;;;;;;11.10;4.85;;;6.80;42.50;;;;;;4957024;28;20069;-74
2022/03/24 03:21:44;;;;;;;8.88;4.57;;;6.80;42.50;;;;;;4957130;28;20023;-74
2022/03/24 03:24:11;;;;;;;6.38;3.97;;;6.80;42.40;;;;;;4956919;28;20042;-74
2022/03/24 03:26:38;;;;;;;9.30;4.57;;;6.70;42.50;;;;;;4957133;28;20015;-75
2022/03/24 03:29:06;;;;;;;15.73;4.68;;;6.70;42.70;;;;;;4956944;28;20027;-74
2022/03/24 03:31:34;;;;;;;8.18;4.57;;;6.70;42.80;;;;;;4956080;28;20524;-74
2022/03/24 03:34:00;;;;;;;8.70;4.57;;;6.70;42.80;;;;;;4956326;28;20113;-74
2022/03/24 03:36:26;;;;;;;9.35;4.50;;;6.70;43.00;;;;;;4956839;28;20098;-75
2022/03/24 03:38:52;;;;;;;10.15;4.78;;;6.70;43.00;;;;;;4956159;28;20529;-74
2022/03/24 03:41:22;;;;;;;9.18;5.10;;;6.70;43.10;;;;;;4956760;28;20106;-74
2022/03/24 03:43:48;;;;;;;9.18;4.78;;;6.60;43.00;;;;;;4956547;28;20050;-74
2022/03/24 03:46:15;;;;;;;10.27;5.13;;;6.60;43.00;;;;;;4955528;29;20027;-74
2022/03/24 03:48:41;;;;;;;8.13;4.38;;;6.60;43.10;;;;;;4937763;29;20034;-74
2022/03/24 03:51:10;;;;;;;11.40;5.65;;;6.60;43.30;;;;;;4938550;29;20031;-74
2022/03/24 03:53:36;;;;;;;10.95;5.47;;;6.60;43.90;;;;;;4955590;29;20481;-74
2022/03/24 03:56:04;;;;;;;10.55;5.65;;;6.60;44.20;;;;;;4956878;28;20416;-75
2022/03/24 03:58:30;;;;;;;11.95;5.75;;;6.60;44.50;;;;;;4955878;28;20039;-74
2022/03/24 04:00:56;;;;;;;8.45;5.05;;;6.60;44.80;;;;;;4955647;28;20503;-74
2022/03/24 04:03:30;;;;;;;9.30;4.93;;;6.60;44.40;;;;;;4955247;28;20079;-72
2022/03/24 04:06:01;;;;;;;12.05;5.30;;;6.50;44.30;;;;;;4970532;28;20046;-75
2022/03/24 04:08:31;;;;;;;9.75;5.03;;;6.60;44.00;;;;;;4970145;28;20477;-74
2022/03/24 04:10:57;;;;;;;8.63;4.60;;;6.50;43.90;;;;;;4955576;28;20027;-74
2022/03/24 04:13:24;;;;;;;9.35;5.18;;;6.50;43.80;;;;;;4956263;28;20023;-74
2022/03/24 04:15:51;;;;;;;7.63;5.00;;;6.50;43.80;;;;;;4955591;28;20097;-74
2022/03/24 04:18:18;;;;;;;9.68;4.90;;;6.50;43.70;;;;;;4955361;28;20066;-74
2022/03/24 04:20:43;;;;;;;8.35;4.97;;;6.50;43.80;;;;;;4956116;28;20023;-74
2022/03/24 04:23:11;;;;;;;17.25;5.22;;;6.50;44.00;;;;;;4970734;28;20161;-75
2022/03/24 04:25:37;;;;;;;10.85;5.28;;;6.40;44.10;;;;;;4956119;28;20030;-74
2022/03/24 04:28:05;;;;;;;11.20;5.47;;;6.40;44.00;;;;;;4955541;28;20031;-75
2022/03/24 04:30:31;;;;;;;8.52;4.70;;;6.40;44.10;;;;;;4954978;28;20117;-75
2022/03/24 04:32:58;;;;;;;10.40;4.93;;;6.40;43.90;;;;;;4955665;28;20031;-74
2022/03/24 04:35:24;;;;;;;16.55;7.82;;;6.40;43.80;;;;;;4955093;28;20142;-75
2022/03/24 04:37:50;;;;;;;18.27;8.20;;;6.30;44.00;;;;;;4955545;28;20293;-75
2022/03/24 04:40:18;;;;;;;14.88;6.80;;;6.30;44.20;;;;;;4955897;28;20035;-75
2022/03/24 04:42:46;;;;;;;16.52;6.63;;;6.30;44.20;;;;;;4955516;28;20059;-74
2022/03/24 04:45:13;;;;;;;14.10;6.82;;;6.30;44.40;;;;;;4955592;28;20481;-75
2022/03/24 04:47:40;;;;;;;16.13;6.70;;;6.30;44.90;;;;;;4955453;28;20038;-74
2022/03/24 04:50:07;;;;;;;12.00;6.30;;;6.30;45.40;;;;;;4955389;28;20035;-75
2022/03/24 04:52:33;;;;;;;9.63;5.43;;;6.30;45.30;;;;;;4960812;28;20446;-74
2022/03/24 04:54:59;;;;;;;11.40;5.30;;;6.30;45.00;;;;;;4954015;29;20027;-74
2022/03/24 04:57:26;;;;;;;10.32;5.30;;;6.30;44.80;;;;;;4954801;28;20359;-74
2022/03/24 04:59:52;;;;;;;10.98;5.75;;;6.30;44.80;;;;;;4954415;28;20043;-74
2022/03/24 05:02:18;;;;;;;8.77;5.50;;;6.30;45.00;;;;;;4953988;29;20054;-75
2022/03/24 05:04:44;;;;;;;9.75;5.30;;;6.30;45.20;;;;;;4969804;28;20039;-75
2022/03/24 05:07:13;;;;;;;13.27;6.22;;;6.30;45.10;;;;;;4955243;28;20065;-75
2022/03/24 05:09:39;;;;;;;13.85;6.38;;;6.30;45.10;;;;;;4954886;28;20043;-74
2022/03/24 05:12:05;;;;;;;20.42;6.80;;;6.30;45.40;;;;;;4969868;28;20486;-74
2022/03/24 05:14:32;;;;;;;12.48;6.95;;;6.30;46.30;;;;;;4959905;28;20031;-75
2022/03/24 05:16:58;;;;;;;11.23;5.60;;;6.30;46.50;;;;;;4955009;29;20062;-75
2022/03/24 05:19:25;;;;;;;14.00;5.90;;;6.30;46.50;;;;;;4954824;28;20041;-75
2022/03/24 05:21:50;;;;;;;15.23;6.47;;;6.30;46.60;;;;;;4954753;28;20081;-74
2022/03/24 05:24:17;;;;;;;14.88;6.68;;;6.30;46.60;;;;;;4953901;29;20059;-74
2022/03/24 05:26:43;;;;;;;12.52;6.38;;;6.30;46.90;;;;;;4954654;28;20034;-75
2022/03/24 05:29:09;;;;;;;11.40;6.15;;;6.30;46.90;;;;;;4953831;28;20114;-75
2022/03/24 05:31:36;;;;;;;11.63;5.15;;;6.30;46.60;;;;;;4954100;28;20098;-74
2022/03/24 05:34:01;;;;;;;13.68;5.55;;;6.30;46.40;;;;;;4954712;28;20369;-74
2022/03/24 05:36:27;;;;;;;10.73;5.03;;;6.40;46.40;;;;;;4954519;28;20053;-74
2022/03/24 05:38:53;;;;;;;12.50;5.53;;;6.40;46.30;;;;;;4954954;28;20039;-75
2022/03/24 05:41:19;;;;;;;10.45;5.15;;;6.40;46.30;;;;;;4954740;28;20390;-75
2022/03/24 05:44:02;;;;;;;13.27;6.05;;;6.40;46.30;;;;;;4954689;28;20031;-74
2022/03/24 05:46:32;;;;;;;12.02;6.07;;;6.50;46.60;;;;;;4954569;28;20028;-75
2022/03/24 05:48:59;;;;;;;9.77;5.40;;;6.50;46.90;;;;;;4954309;28;20548;-74
2022/03/24 05:51:26;;;;;;;9.57;4.88;;;6.60;46.70;;;;;;4954583;28;20027;-74
2022/03/24 05:53:52;;;;;;;7.72;4.32;;;6.60;46.50;;;;;;4953628;29;20027;-75
2022/03/24 05:56:19;;;;;;;9.57;4.95;;;6.70;46.50;;;;;;4954520;28;20031;-75
2022/03/24 05:58:46;;;;;;;9.43;4.82;;;6.80;46.60;;;;;;4954328;28;20043;-74
2022/03/24 06:01:12;;;;;;;10.80;5.50;;;6.80;46.60;;;;;;4953637;28;20106;-74
2022/03/24 06:03:38;;;;;;;13.38;5.63;;;6.90;47.00;;;;;;4954784;28;20077;-75
2022/03/24 06:06:06;;;;;;;12.20;5.63;;;6.90;47.10;;;;;;4954699;28;20023;-74
2022/03/24 06:08:33;;;;;;;10.70;5.55;;;7.00;47.30;;;;;;4954157;29;20115;-75
2022/03/24 06:11:03;;;;;;;13.18;4.80;;;7.10;47.00;;;;;;4953304;29;20055;-75
2022/03/24 06:13:28;;;;;;;22.77;5.57;;;7.20;46.90;;;;;;4954389;28;20375;-75
2022/03/24 06:15:55;;;;;;;11.88;6.13;;;7.20;46.80;;;;;;4954303;28;20082;-74
2022/03/24 06:18:21;;;;;;;15.05;6.07;;;7.30;46.80;;;;;;4954408;28;20034;-74
2022/03/24 06:20:47;;;;;;;11.30;5.75;;;7.40;47.00;;;;;;4954326;28;20031;-74
2022/03/24 06:23:13;;;;;;;14.43;6.35;;;7.50;47.30;;;;;;4954237;28;20038;-75
2022/03/24 06:25:42;;;;;;;14.55;5.38;;;7.50;47.20;;;;;;4954339;28;20050;-74
2022/03/24 06:28:08;;;;;;;10.80;4.75;;;7.60;47.10;;;;;;4954286;28;20032;-75
2022/03/24 06:30:34;;;;;;;9.68;4.97;;;7.70;46.90;;;;;;4953052;28;20362;-74
2022/03/24 06:33:00;;;;;;;24.27;6.45;;;7.80;46.60;;;;;;4953732;28;20444;-74
2022/03/24 06:35:27;;;;;;;10.43;5.20;;;7.80;46.70;;;;;;4954111;28;20389;-74
2022/03/24 06:37:53;;;;;;;15.13;5.78;;;7.90;46.50;;;;;;4954387;28;20072;-74
2022/03/24 06:40:19;;;;;;;11.10;4.93;;;8.00;46.40;;;;;;4982743;28;20028;-74
2022/03/24 06:42:46;;;;;;;11.77;6.30;;;8.00;46.20;;;;;;4957603;28;20035;-74
2022/03/24 06:45:13;;;;;;;14.55;5.88;;;8.10;46.20;;;;;;4956824;29;20023;-74
2022/03/24 06:47:40;;;;;;;14.10;5.55;;;8.20;46.00;;;;;;4957438;28;20034;-74
2022/03/24 06:50:12;;;;;;;13.90;5.90;;;8.20;45.90;;;;;;4957950;28;20020;-74
2022/03/24 06:52:38;;;;;;;14.15;6.38;;;8.30;45.80;;;;;;4957345;28;20426;-75
2022/03/24 06:55:05;;;;;;;8.90;5.13;;;8.40;45.80;;;;;;4962409;28;20496;-74
2022/03/24 06:57:31;;;;;;;8.75;5.10;;;8.50;45.60;;;;;;4961565;28;20030;-75
2022/03/24 06:59:57;;;;;;;9.38;5.18;;;8.60;45.50;;;;;;4977067;28;20049;-75
2022/03/24 07:02:23;;;;;;;12.88;4.57;;;8.60;45.40;;;;;;4958843;28;20081;-74
2022/03/24 07:04:49;;;;;;;8.93;5.20;;;8.70;45.20;;;;;;4957376;28;20066;-74
2022/03/24 07:07:15;;;;;;;15.75;4.45;;;8.80;45.00;;;;;;4957146;28;20031;-75
2022/03/24 07:09:41;;;;;;;22.45;3.92;;;8.90;44.80;;;;;;4957263;29;20063;-75
2022/03/24 07:12:07;;;;;;;9.23;4.80;;;9.00;44.70;;;;;;4956647;28;20062;-74
2022/03/24 07:14:33;;;;;;;10.88;5.47;;;9.00;44.50;;;;;;4966312;28;20106;-75
2022/03/24 07:16:59;;;;;;;10.60;5.65;;;9.10;44.30;;;;;;4959606;28;20110;-74
2022/03/24 07:19:24;;;;;;;12.07;5.30;;;9.20;44.20;;;;;;4978741;28;20035;-74
2022/03/24 07:21:50;;;;;;;12.23;5.40;;;9.30;44.00;;;;;;4956950;28;20094;-74
2022/03/24 07:24:16;;;;;;;10.13;5.35;;;9.30;43.70;;;;;;4964245;28;20090;-74
2022/03/24 07:26:42;;;;;;;11.55;5.57;;;9.40;43.50;;;;;;4963559;28;20051;-74
2022/03/24 07:29:10;;;;;;;11.02;5.55;;;9.50;43.40;;;;;;4957765;28;20031;-74
2022/03/24 07:31:37;;;;;;;9.30;5.05;;;9.60;43.20;;;;;;4986791;28;20018;-75
2022/03/24 07:34:04;;;;;;;9.82;4.53;;;9.70;43.10;;;;;;4979304;28;20023;-75
2022/03/24 07:36:30;;;;;;;7.50;4.22;;;9.80;42.90;;;;;;4956985;28;20056;-75
2022/03/24 07:38:58;;;;;;;8.82;4.70;;;9.80;42.70;;;;;;4948158;28;20062;-75
2022/03/24 07:41:25;;;;;;;7.05;4.43;;;9.90;42.50;;;;;;4955158;28;20119;-75
2022/03/24 07:43:51;;;;;;;10.73;4.70;;;10.00;42.10;;;;;;4959885;28;20035;-75
2022/03/24 07:46:17;;;;;;;8.57;4.53;;;10.10;41.70;;;;;;4956742;28;20030;-74
2022/03/24 07:48:46;;;;;;;6.00;3.50;;;10.20;41.30;;;;;;4936803;29;20047;-75
2022/03/24 07:51:13;;;;;;;7.35;3.88;;;10.20;41.10;;;;;;4947799;28;20023;-75
2022/03/24 07:53:48;;;;;;;7.82;5.45;;;10.30;41.00;;;;;;4950006;29;20043;-75
2022/03/24 07:56:18;;;;;;;9.88;5.25;;;10.40;40.70;;;;;;4952049;29;20110;-75
2022/03/24 07:58:44;;;;;;;9.57;5.13;;;10.50;40.80;;;;;;4955843;28;20494;-75
2022/03/24 08:01:11;;;;;;;11.05;5.95;;;10.60;40.70;;;;;;4956533;28;20042;-74
2022/03/24 08:03:37;;;;;;;12.05;6.05;;;10.60;40.50;;;;;;4955694;29;20094;-75
2022/03/24 08:06:03;;;;;;;15.20;6.68;;;10.70;40.40;;;;;;4956347;28;20102;-74
2022/03/24 08:08:30;;;;;;;13.38;6.25;;;10.80;40.20;;;;;;4956103;29;20027;-75
2022/03/24 08:10:57;;;;;;;8.98;5.78;;;10.80;40.20;;;;;;4955944;28;20046;-75
2022/03/24 08:13:24;;;;;;;14.02;7.50;;;10.90;40.00;;;;;;4956007;28;20027;-75
2022/03/24 08:15:50;;;;;;;13.48;7.10;;;11.00;40.00;;;;;;4956292;28;20066;-75
2022/03/24 08:18:17;;;;;;;13.30;6.07;;;11.10;40.00;;;;;;4955413;29;20031;-74
2022/03/24 08:20:44;;;;;;;14.57;6.65;;;11.20;39.80;;;;;;4956115;29;20023;-75
2022/03/24 08:23:11;;;;;;;10.48;5.63;;;11.30;39.60;;;;;;4949551;28;20070;-74
2022/03/24 08:25:42;;;;;;;14.57;5.10;;;11.30;39.70;;;;;;4956036;28;20026;-74
2022/03/24 08:28:10;;;;;;;8.13;5.28;;;11.40;39.70;;;;;;4955675;28;20023;-74
2022/03/24 08:30:35;;;;;;;14.52;7.63;;;11.60;39.90;;;;;;4946571;28;20034;-74
2022/03/24 08:33:01;;;;;;;19.65;9.57;;;11.60;39.80;;;;;;4954225;28;20027;-74
2022/03/24 08:35:27;;;;;;;19.30;10.00;;;11.70;39.70;;;;;;4950469;28;20106;-74
2022/03/24 08:37:54;;;;;;;18.42;8.68;;;11.70;39.50;;;;;;4955277;28;20606;-74
2022/03/24 08:40:19;;;;;;;18.35;9.18;;;11.80;39.60;;;;;;4949931;28;20037;-74
2022/03/24 08:42:45;;;;;;;25.58;9.77;;;11.90;39.60;;;;;;4969321;28;20037;-74
2022/03/24 08:45:13;;;;;;;28.15;10.23;;;11.90;39.40;;;;;;4955485;28;20134;-74
2022/03/24 08:47:40;;;;;;;23.83;12.13;;;12.00;39.30;;;;;;4949180;28;20027;-74
2022/03/24 08:50:08;;;;;;;21.73;11.20;;;12.10;39.10;;;;;;4967151;28;20035;-74
2022/03/24 08:52:35;;;;;;;26.10;10.07;;;12.20;39.00;;;;;;4950419;28;20027;-74
2022/03/24 08:55:05;;;;;;;23.55;9.48;;;12.30;39.30;;;;;;4953055;28;20106;-74
2022/03/24 08:57:32;;;;;;;19.50;9.68;;;12.40;39.00;;;;;;4950489;28;20041;-74
2022/03/24 09:00:00;;;;;;;20.35;9.90;;;12.40;38.70;;;;;;4952719;28;20094;-75
2022/03/24 09:02:27;;;;;;;18.27;9.32;;;12.50;38.60;;;;;;4952381;28;20445;-74
2022/03/24 09:04:53;;;;;;;20.85;9.55;;;12.60;38.60;;;;;;4951562;29;20070;-74
2022/03/24 09:07:19;;;;;;;17.33;7.95;;;12.70;38.70;;;;;;4954613;28;20019;-74
2022/03/24 09:09:45;;;;;;;16.17;7.70;;;12.80;38.70;;;;;;4953368;28;20062;-74
2022/03/24 09:12:11;;;;;;;13.57;7.10;;;12.90;38.70;;;;;;4955022;28;20062;-74
2022/03/24 09:14:41;;;;;;;17.48;7.13;;;13.00;38.60;;;;;;4954823;28;20028;-74
2022/03/24 09:17:08;;;;;;;14.13;7.25;;;13.00;38.50;;;;;;4952241;28;20504;-74
2022/03/24 09:19:34;;;;;;;12.98;7.28;;;13.20;38.40;;;;;;4954854;28;20035;-75
2022/03/24 09:22:01;;;;;;;11.45;7.13;;;13.20;38.00;;;;;;4955235;28;20515;-75
2022/03/24 09:24:27;;;;;;;11.07;6.07;;;13.30;37.60;;;;;;4965654;28;20034;-74
2022/03/24 09:26:53;;;;;;;12.90;6.38;;;13.50;37.80;;;;;;4951074;28;20055;-74
2022/03/24 09:29:19;;;;;;;13.00;6.57;;;13.50;37.70;;;;;;4957050;28;20023;-74
2022/03/24 09:31:47;;;;;;;13.27;6.43;;;13.60;37.50;;;;;;4965312;28;20038;-74
2022/03/24 09:34:12;;;;;;;15.68;7.45;;;13.80;37.40;;;;;;4952656;28;20511;-76
2022/03/24 09:36:39;;;;;;;17.48;7.28;;;13.90;37.20;;;;;;4981322;28;20028;-75
2022/03/24 09:39:05;;;;;;;10.73;6.85;;;14.00;37.30;;;;;;4953674;29;20059;-73
2022/03/24 09:41:31;;;;;;;11.60;6.85;;;14.00;37.20;;;;;;4953531;28;20038;-73
2022/03/24 09:43:58;;;;;;;15.32;8.20;;;14.10;36.80;;;;;;4954331;29;20447;-73
2022/03/24 09:46:27;;;;;;;13.45;6.90;;;14.20;36.30;;;;;;4954442;28;20023;-73
2022/03/24 09:48:53;;;;;;;10.13;7.00;;;14.30;36.20;;;;;;4949777;28;20024;-73
2022/03/24 09:51:22;;;;;;;9.75;6.03;;;14.40;35.50;;;;;;4969311;28;20484;-73
2022/03/24 09:53:48;;;;;;;13.18;7.72;;;14.60;35.70;;;;;;4954295;28;20035;-73
2022/03/24 09:56:14;;;;;;;11.50;7.32;;;14.70;34.50;;;;;;4951726;29;20023;-73
2022/03/24 09:58:44;;;;;;;11.48;7.20;;;14.70;34.40;;;;;;4952067;29;20418;-73
2022/03/24 10:01:10;;;;;;;13.88;7.93;;;14.80;35.00;;;;;;4953732;28;20058;-73
2022/03/24 10:03:37;;;;;;;15.02;9.10;;;15.00;34.20;;;;;;4953826;28;20031;-73
2022/03/24 10:06:07;;;;;;;14.38;8.25;;;15.10;34.20;;;;;;4971947;28;20022;-73
2022/03/24 10:08:34;;;;;;;19.50;9.05;;;15.20;33.60;;;;;;4955458;28;20027;-73
2022/03/24 10:11:05;;;;;;;15.07;7.07;;;15.30;32.90;;;;;;4965152;28;20058;-73
2022/03/24 10:13:54;;;;;;;13.05;8.07;;;15.40;33.30;;;;;;4954851;28;20042;-73
2022/03/24 10:16:40;;;;;;;12.52;7.85;;;15.60;32.90;;;;;;4991182;28;20053;-73
2022/03/24 10:19:18;;;;;;;13.05;7.97;;;15.70;32.20;;;;;;4977687;28;20054;-74
2022/03/24 10:21:49;;;;;;;14.02;8.18;;;15.80;32.00;;;;;;4956728;28;20027;-74
2022/03/24 10:24:21;;;;;;;11.38;7.75;;;15.90;32.00;;;;;;4959516;28;20102;-74
2022/03/24 10:26:55;;;;;;;12.13;7.22;;;16.00;31.80;;;;;;4953363;29;20036;-73
2022/03/24 10:29:24;;;;;;;12.13;8.07;;;16.10;32.00;;;;;;4964108;28;20027;-73
2022/03/24 10:32:03;;;;;;;15.10;7.70;;;16.20;32.00;;;;;;4970975;28;20032;-73
2022/03/24 10:34:40;;;;;;;11.95;7.75;;;16.30;31.80;;;;;;4957742;28;20034;-74
2022/03/24 10:37:17;;;;;;;13.32;8.35;;;16.40;31.30;;;;;;4972647;28;20027;-73
2022/03/24 10:40:06;;;;;;;13.77;8.65;;;16.50;31.10;;;;;;4955913;29;20023;-73
2022/03/24 10:42:42;;;;;;;13.95;8.23;;;16.60;31.30;;;;;;4956321;29;20034;-73
2022/03/24 10:45:23;;;;;;;10.50;6.90;;;16.70;31.20;;;;;;4972422;28;20516;-73
2022/03/24 10:47:55;;;;;;;12.18;8.25;;;16.80;31.30;;;;;;4947517;29;20030;-74
2022/03/24 10:50:40;;;;;;;17.10;10.00;;;16.90;30.50;;;;;;4937873;28;20034;-73
2022/03/24 10:53:10;;;;;;;14.18;8.57;;;17.00;29.60;;;;;;4946948;29;20027;-73
2022/03/24 10:55:44;;;;;;;14.98;10.38;;;17.10;29.80;;;;;;4950737;29;20042;-73
2022/03/24 10:58:30;;;;;;;20.63;10.57;;;17.20;28.60;;;;;;4956388;28;20051;-74
2022/03/24 11:01:03;;;;;;;15.73;9.32;;;17.30;28.00;;;;;;4958921;28;20764;-75
2022/03/24 11:03:31;;;;;;;16.33;9.80;;;17.40;28.30;;;;;;4967497;28;20039;-74
2022/03/24 11:06:17;;;;;;;13.93;10.02;;;17.50;28.40;;;;;;4958945;28;20055;-73
2022/03/24 11:08:51;;;;;;;18.05;10.63;;;17.60;28.10;;;;;;4954378;29;20023;-73
2022/03/24 11:11:19;;;;;;;;;;;17.70;27.40;;;;;;4973955;28;20027;-74
2022/03/24 11:13:54;;;;;;;16.65;9.85;;;17.80;29.00;;;;;;4958852;28;20053;-73
2022/03/24 11:16:25;;;;;;;14.02;8.85;;;17.90;27.90;;;;;;4954517;28;20035;-74
2022/03/24 11:18:53;;;;;;;14.90;9.65;;;18.00;27.90;;;;;;4955079;29;20019;-73
2022/03/24 11:21:40;;;;;;;16.83;9.75;;;18.10;27.30;;;;;;4954607;28;20556;-74
2022/03/24 11:24:06;;;;;;;15.43;9.82;;;18.20;27.20;;;;;;4954223;28;20043;-74
2022/03/24 11:26:34;;;;;;;33.20;12.23;;;18.30;27.20;;;;;;4956209;28;20480;-73
2022/03/24 11:29:00;;;;;;;18.58;9.93;;;18.40;26.90;;;;;;4957195;28;20023;-73
2022/03/24 11:31:31;;;;;;;15.05;9.95;;;18.50;26.70;;;;;;4955962;29;20023;-73
2022/03/24 11:34:00;;;;;;;19.80;10.82;;;18.60;26.50;;;;;;4956717;28;20035;-73
2022/03/24 11:36:28;;;;;;;15.90;9.93;;;18.70;26.30;;;;;;4957175;28;20027;-73
2022/03/24 11:38:56;;;;;;;23.13;11.85;;;18.70;26.10;;;;;;4957128;29;20031;-74
2022/03/24 11:41:44;;;;;;;17.15;10.43;;;18.80;25.80;;;;;;4956233;28;20059;-73
2022/03/24 11:44:17;;;;;;;13.25;9.73;;;18.90;26.10;;;;;;4956847;28;20477;-73
2022/03/24 11:46:55;;;;;;;13.55;9.98;;;19.00;25.70;;;;;;4971753;28;20038;-73
2022/03/24 11:49:25;;;;;;;17.02;10.63;;;19.00;25.70;;;;;;4956852;28;20031;-74
2022/03/24 11:51:57;;;;;;;17.88;10.15;;;19.10;25.60;;;;;;4957143;28;20016;-73
2022/03/24 11:54:25;;;;;;;15.95;10.27;;;19.20;25.20;;;;;;4955487;28;20027;-73
2022/03/24 11:57:26;;;;;;;18.60;11.27;;;19.20;24.70;;;;;;4955319;29;20417;-73
2022/03/24 12:00:13;;;;;;;16.63;10.57;;;19.30;25.00;;;;;;4956166;28;20039;-74
2022/03/24 12:02:39;;;;;;;18.55;12.45;;;19.40;25.00;;;;;;4970763;28;20031;-73
2022/03/24 12:05:05;;;;;;;14.73;10.15;;;19.40;24.30;;;;;;4956503;28;20032;-73
2022/03/24 12:07:31;;;;;;;17.27;10.98;;;19.50;24.90;;;;;;4956396;28;20024;-73
2022/03/24 12:10:01;;;;;;;16.27;9.63;;;19.60;25.30;;;;;;4955862;28;20393;-73
2022/03/24 12:12:28;;;;;;;15.10;9.88;;;19.70;25.50;;;;;;4965279;28;20497;-73
2022/03/24 12:14:54;;;;;;;15.90;9.93;;;19.70;24.80;;;;;;4954997;28;20098;-73
2022/03/24 12:17:23;;;;;;;16.25;9.65;;;19.80;24.30;;;;;;4955831;28;20050;-74
2022/03/24 12:19:51;;;;;;;16.25;9.35;;;19.80;24.60;;;;;;4955938;28;20034;-73
2022/03/24 12:22:26;;;;;;;15.75;9.75;;;19.90;24.30;;;;;;4955772;28;20034;-73
2022/03/24 12:25:12;;;;;;;18.02;9.10;;;19.90;24.60;;;;;;4955853;29;20102;-73
2022/03/24 12:28:04;;;;;;;22.10;9.27;;;19.90;24.70;;;;;;4960652;28;20413;-74
2022/03/24 12:30:43;;;;;;;15.23;8.60;;;20.00;24.50;;;;;;4955595;29;20489;-74
2022/03/24 12:33:12;;;;;;;13.25;9.00;;;20.00;24.00;;;;;;4954240;29;20062;-73
2022/03/24 12:35:53;;;;;;;14.75;9.05;;;20.10;23.60;;;;;;4955060;28;20024;-74
2022/03/24 12:38:34;;;;;;;16.33;9.30;;;20.20;23.40;;;;;;4954697;28;20094;-73
2022/03/24 12:41:06;;;;;;;15.13;10.00;;;20.20;22.80;;;;;;4954360;29;20481;-73
2022/03/24 12:43:45;;;;;;;13.93;10.00;;;20.30;22.50;;;;;;4955227;28;20023;-73
2022/03/24 12:46:23;;;;;;;14.85;9.65;;;20.30;22.50;;;;;;4943660;29;20106;-74
2022/03/24 12:48:50;;;;;;;10.82;7.53;;;20.30;21.40;;;;;;4969997;28;20038;-73
2022/03/24 12:51:30;;;;;;;11.75;8.07;;;20.40;21.00;;;;;;4955393;28;20035;-73